Decoded Metar for LFBA (AGEN in FRANCE) (IATA:AGF) | Meteo·Mobile Aviation Weather
aviador You're here:

LFBA Decoded Metar

AGEN in FRANCE
Report Time2019-10-19 22:00:00
UTC Time2019-10-19 22:13:19
Flight Rules vfr VFR
WindVRB at 01 kt
Visibility9999 m
Phenomena:N/A
Clouds:N/A
Expected CloudBase > 800 ft AGL from Temp-Dew spread
CeilingNone
Temp12°C (ISA -3)
Dew Point10°C (88% RH)
AAT11.7°C
QNH1002 hPa
Density Alt427 ft
Elevation197 ft
Report Wrong Elevation
Raw Report
LFBA 192200Z AUTO VRB01KT CAVOK 12/10 Q1002=

Extra information for LFBA:More info

Metar Taf Metar & Taf Last 4 Metars F.Rules Stats Wind Profile Meteogram Temp Stats Airport Information Weather charts Add Link Nearby VenuesMetar ALERT Operation Metar Decoded Social comments